Latest Coastal Weather Observations for Carnarvon

IDW60701

Issued at 12:52 pm WST Tuesday 3 March 2015 (issued every 10 minutes, with the page automatically refreshed every 10 minutes)

About coastal observations | Map of coastal stations | Coastal observations for WA | Marine services | Other Formats
Station Details ID: 006011 Name: CARNARVON AIRPORT Lat: -24.89 Lon: 113.67 Height: 4.0 m
Data from the previous 72 hours. | See also: Recent months at Carnarvon
Date/Time
WST
Temp

°C
Wind Pressure Rain
since 9am
mm
Weather Cloud Vis
km
Sea
Height
m
Swell
Dir
 
Speed
knots
Gust
knots
hPa Trend Height
m
Period
s
Dir
03/12:30pm 31.1 SSW 17 23 1008.2 - 0.0 - Partly cloudy 10 - - - -
03/12:00pm 32.0 SSW 16 21 1008.7 - 0.0 - Mostly clear 10 - - - -
03/11:30am 34.4 SE 9 23 1009.0 - 0.0 - Partly cloudy 10 - - - -
03/11:00am 33.2 ESE 9 12 1009.3 - 0.0 - - 10 - - - -
03/10:30am 32.9 SE 10 15 1009.4 - 0.0 - - 10 - - - -
03/10:00am 31.9 SE 12 18 1009.6 - 0.0 - - 10 - - - -
03/09:30am 30.9 ESE 13 17 1009.7 - 0.0 - - 10 - - - -
03/09:00am 29.9 SE 14 17 1009.8 - 0.0 Fine Mostly clear 10 - - - -
03/08:30am 28.7 SE 13 17 1009.9 - 0.0 - Partly cloudy 10 - - - -
03/08:00am 27.8 ESE 13 15 1009.7 - 0.0 - Partly cloudy 10 - - - -
03/07:30am 27.4 ESE 11 15 1009.5 - 0.0 - Cloudy 10 - - - -
03/07:00am 26.9 SE 9 12 1009.3 - 0.0 - Partly cloudy 10 - - - -
03/06:30am 26.5 SSE 8 11 1009.1 - 0.0 - Partly cloudy 10 - - - -
03/06:00am 26.8 ESE 11 14 1008.9 - 0.0 - Cloudy 10 - - - -
03/05:30am 26.3 SSE 7 9 1008.6 - 0.0 - Cloudy 10 - - - -
03/05:00am 26.1 SSE 6 8 1008.4 - 0.0 - Cloudy 10 - - - -
03/04:30am 25.8 SSE 7 8 1008.2 - 0.0 - Partly cloudy 10 - - - -
03/04:00am 26.2 SE 6 8 1008.1 - 0.0 - - 10 - - - -
03/03:30am 26.4 SE 6 8 1008.1 - 0.0 - Partly cloudy 10 - - - -
03/03:00am 26.6 SE 6 7 1008.1 - 0.0 - Mostly cloudy 10 - - - -
03/02:30am 26.3 SE 6 7 1008.1 - 0.0 - Partly cloudy 10 - - - -
03/02:00am 26.5 SE 7 9 1008.1 - 0.0 - - 10 - - - -
03/01:30am 26.7 ESE 8 12 1008.1 - 0.0 - - 10 - - - -
03/01:00am 27.0 SE 10 13 1008.2 - 0.0 - - 10 - - - -
03/12:30am 27.0 SE 9 13 1008.0 - 0.0 - - 10 - - - -
03/12:00am 27.3 SE 11 13 1007.9 - 0.0 - - 10 - - - -
 
Date/Time
WST
Temp

°C
Wind Pressure Rain
since 9am
mm
Weather Cloud Vis
km
Sea
Height
m
Swell
Dir
 
Speed
knots
Gust
knots
hPa Trend Height
m
Period
s
Dir
02/11:30pm 27.6 SE 11 15 1007.7 - 0.0 - - 10 - - - -
02/11:00pm 28.0 SE 15 19 1007.7 - 0.0 - - 10 - - - -
02/10:30pm 28.3 SE 13 18 1007.8 - 0.0 - - 10 - - - -
02/10:00pm 28.1 SSE 10 13 1007.6 - 0.0 - - 10 - - - -
02/09:30pm 28.1 SSE 10 13 1007.5 - 0.0 - Partly cloudy 10 - - - -
02/09:00pm 28.0 S 12 16 1007.2 - 0.0 - Partly cloudy 10 - - - -
02/08:30pm 27.9 SSE 15 19 1007.0 - 0.0 - - 10 - - - -
02/08:00pm 28.0 S 15 19 1006.7 - 0.0 - - 10 - - - -
02/07:30pm 27.9 S 14 20 1006.4 - 0.0 - - 10 - - - -
02/07:00pm 27.8 S 17 21 1006.0 - 0.0 - - 10 - - - -
02/06:30pm 28.2 S 16 20 1005.6 - 0.0 - - 10 - - - -
02/06:00pm 28.3 S 17 23 1005.3 - 0.0 - - 10 - - - -
02/05:30pm 28.2 SSW 16 19 1005.1 - 0.0 - - 10 - - - -
02/05:00pm 29.0 SSW 16 21 1005.1 - 0.0 - - 10 - - - -
02/04:30pm 28.7 SSW 17 21 1005.2 - 0.0 - - 10 - - - -
02/04:00pm 29.0 SW 15 19 1005.1 - 0.0 - - 10 - - - -
02/03:30pm 28.9 SSW 15 18 1005.3 - 0.0 - - 10 - - - -
02/03:00pm 29.8 SW 14 17 1005.4 - 0.0 Fine Mostly clear 25 - - - -
02/02:30pm 29.9 SW 13 16 1005.7 - 0.0 - - 10 - - - -
02/02:00pm 29.5 SW 12 15 1006.0 - 0.0 - - 10 - - - -
02/01:30pm 29.1 SSW 11 14 1006.2 - 0.0 - Partly cloudy 10 - - - -
02/01:00pm 28.1 SSW 10 13 1006.7 - 0.0 - Partly cloudy 10 - - - -
02/12:30pm 27.8 SSW 11 13 1007.2 - 0.0 - Cloudy 10 - - - -
02/12:00pm 28.1 SSW 12 15 1007.4 - 0.0 - Cloudy 10 - - - -
02/11:38am 27.2 SSW 12 15 1007.6 - 0.0 - Partly cloudy 10 - - - -
02/11:30am 27.0 SSW 12 15 1007.7 - 0.0 - Partly cloudy 10 - - - -
02/11:02am 26.9 SSW 11 14 1007.9 - 0.0 - Partly cloudy 10 - - - -
02/11:00am 26.9 SSW 11 14 1007.8 - 0.0 - Partly cloudy 10 - - - -
02/10:30am 27.2 SSW 9 12 1007.9 - 0.0 - Cloudy 10 - - - -
02/10:00am 26.2 SSW 9 11 1008.0 - 0.0 - Partly cloudy 10 - - - -
02/09:39am 26.1 SSW 8 10 1008.0 - 0.0 - Cloudy 10 - - - -
02/09:30am 26.1 SSW 8 11 1008.0 - 0.0 - Cloudy 10 - - - -
02/09:25am 26.4 SSW 8 10 1008.1 - 0.0 - Partly cloudy 10 - - - -
02/09:00am 26.1 SSW 7 9 1008.0 - 0.0 Fine Cloudy 10 - - - -
02/08:30am 25.5 S 6 8 1007.7 - 0.0 - Cloudy 10 - - - -
02/08:00am 25.3 SSW 6 8 1007.5 - 0.0 - Cloudy 10 - - - -
02/07:30am 25.3 S 7 9 1007.4 - 0.0 - Cloudy 10 - - - -
02/07:00am 25.1 S 6 8 1007.0 - 0.0 - Cloudy 10 - - - -
02/06:30am 24.9 S 7 9 1006.8 - 0.0 - Cloudy 10 - - - -
02/06:00am 24.8 S 6 8 1006.6 - 0.0 - Mostly cloudy 10 - - - -
02/05:30am 24.8 S 7 10 1006.6 - 0.0 - Partly cloudy 10 - - - -
02/05:00am 24.8 SSW 9 11 1006.5 - 0.0 - Cloudy 10 - - - -
02/04:57am 24.8 SSW 9 11 1006.4 - 0.0 - Cloudy 10 - - - -
02/04:43am 24.7 SSW 8 11 1006.4 - 0.0 - Partly cloudy 10 - - - -
02/04:30am 24.7 SSW 8 10 1006.3 - 0.0 - Cloudy 10 - - - -
02/04:00am 24.7 SSW 9 11 1006.4 - 0.0 - Partly cloudy 10 - - - -
02/03:30am 24.7 SSW 10 12 1006.4 - 0.0 - Cloudy 10 - - - -
02/03:00am 24.7 SSW 9 12 1006.4 - 0.0 - Mostly cloudy 10 - - - -
02/02:30am 24.6 SSW 10 13 1006.2 - 0.0 - Cloudy 10 - - - -
02/02:00am 24.6 SSW 10 13 1006.5 - 0.0 - Partly cloudy 10 - - - -
02/01:30am 24.7 SSW 10 13 1006.7 - 0.0 - Partly cloudy 10 - - - -
02/01:00am 24.8 SSW 11 15 1006.9 - 0.0 - Partly cloudy 10 - - - -
02/12:30am 24.9 SSW 11 14 1006.9 - 0.0 - Partly cloudy 10 - - - -
02/12:00am 25.0 SSW 9 13 1007.0 - 0.0 - Mostly clear 10 - - - -
 
Date/Time
WST
Temp

°C
Wind Pressure Rain
since 9am
mm
Weather Cloud Vis
km
Sea
Height
m
Swell
Dir
 
Speed
knots
Gust
knots
hPa Trend Height
m
Period
s
Dir
01/11:30pm 25.1 S 11 15 1007.3 - 0.0 - Partly cloudy 10 - - - -
01/11:00pm 25.3 S 11 14 1007.5 - 0.0 - Partly cloudy 10 - - - -
01/10:30pm 25.4 S 12 17 1007.6 - 0.0 - Cloudy 10 - - - -
01/10:00pm 25.3 S 14 18 1007.7 - 0.0 - Cloudy 10 - - - -
01/09:30pm 25.4 SSW 16 20 1007.6 - 0.0 - Cloudy 10 - - - -
01/09:01pm 25.2 SSW 16 21 1007.7 - 0.0 - Cloudy 10 - - - -
01/09:00pm 25.2 SSW 16 21 1007.7 - 0.0 - Mostly cloudy 10 - - - -
01/08:30pm 25.3 SSW 17 22 1007.5 - 0.0 - Cloudy 10 - - - -
01/08:26pm 25.2 SSW 17 22 1007.5 - 0.0 - Cloudy 10 - - - -
01/08:00pm 25.4 SSW 17 22 1007.0 - 0.0 - Cloudy 10 - - - -
01/07:30pm 25.4 SSW 19 25 1006.3 - 0.0 - Cloudy 10 - - - -
01/07:13pm 25.5 SSW 18 24 1006.1 - 0.0 - Partly cloudy 10 - - - -
01/07:00pm 25.5 SSW 19 25 1005.8 - 0.0 - Partly cloudy 10 - - - -
01/06:30pm 26.0 SW 17 23 1005.4 - 0.0 - Partly cloudy 10 - - - -
01/06:12pm 26.5 SW 16 21 1005.1 - 0.0 - Partly cloudy 10 - - - -
01/06:00pm 26.8 SW 16 23 1004.9 - 0.0 - Mostly clear 10 - - - -
01/05:30pm 26.8 SW 16 22 1004.7 - 0.0 - - 10 - - - -
01/05:00pm 27.5 SW 17 23 1004.4 - 0.0 - - 10 - - - -
01/04:30pm 28.1 WSW 17 21 1004.3 - 0.0 - - 10 - - - -
01/04:00pm 27.8 WSW 16 21 1004.4 - 0.0 - - 10 - - - -
01/03:30pm 27.7 WSW 16 20 1004.7 - 0.0 - - 10 - - - -
01/03:00pm 28.1 W 12 16 1004.9 - 0.0 Fine Mostly clear 25 - - - -
01/02:30pm 28.2 WSW 13 18 1005.4 - 0.0 - - 10 - - - -
01/02:00pm 29.0 WSW 13 17 1005.8 - 0.0 - - 10 - - - -
01/01:30pm 28.5 WSW 11 16 1006.0 - 0.0 - - 10 - - - -
01/01:00pm 28.3 WSW 12 16 1006.0 - 0.0 - - 10 - - - -
01/12:30pm 28.5 WSW 11 15 1006.1 - 0.0 - - 10 - - - -
01/12:00pm 29.2 W 11 13 1006.4 - 0.0 - - 10 - - - -
01/11:30am 29.9 WNW 10 13 1006.7 - 0.0 - - 10 - - - -
01/11:00am 30.6 WNW 11 16 1006.7 - 0.0 - - 10 - - - -
01/10:30am 28.6 WSW 9 12 1007.0 - 0.0 - - 10 - - - -
01/10:00am 28.1 WSW 9 11 1007.1 - 0.0 - - 10 - - - -
01/09:30am 28.3 WSW 8 11 1007.3 - 0.0 - - 10 - - - -
01/09:00am 29.0 N 4 5 1007.1 - 0.0 Fine Mostly clear 20 - - - -
01/08:30am 28.2 NNE 2 4 1006.8 - 0.0 - - 10 - - - -
01/08:00am 27.0 NNE 3 4 1006.6 - 0.0 - - 10 - - - -
01/07:30am 26.2 CALM 0 0 1006.6 - 0.0 - - 10 - - - -
01/07:00am 24.7 NNE 4 5 1006.3 - 0.0 - - 10 - - - -
01/06:30am 24.3 CALM 0 0 1006.1 - 0.0 - - 10 - - - -
01/06:00am 24.4 NNE 5 5 1005.9 - 0.0 - - 10 - - - -
01/05:30am 24.1 CALM 0 0 1005.5 - 0.0 - - 10 - - - -
01/05:00am 24.7 SW 4 4 1005.6 - 0.0 - - 10 - - - -
01/04:30am 24.9 WSW 5 6 1005.2 - 0.0 - - 10 - - - -
01/04:00am 24.8 SW 5 7 1005.3 - 0.0 - - 10 - - - -
01/03:30am 24.8 SW 7 9 1005.4 - 0.0 - - 10 - - - -
01/03:00am 24.9 SW 8 11 1005.3 - 0.0 - - 10 - - - -
01/02:30am 25.0 SW 8 11 1005.3 - 0.0 - - 10 - - - -
01/02:00am 25.1 SW 8 11 1005.6 - 0.0 - - 10 - - - -
01/01:30am 25.1 SW 8 10 1005.5 - 0.0 - - 10 - - - -
01/01:00am 25.1 SW 7 10 1005.8 - 0.0 - - 10 - - - -
01/12:30am 25.2 SW 8 10 1006.3 - 0.0 - Partly cloudy 10 - - - -
01/12:00am 25.3 SW 10 13 1006.4 - 0.0 - - 10 - - - -
 
Date/Time
WST
Temp

°C
Wind Pressure Rain
since 9am
mm
Weather Cloud Vis
km
Sea
Height
m
Swell
Dir
 
Speed
knots
Gust
knots
hPa Trend Height
m
Period
s
Dir
28/11:30pm 25.4 SW 11 14 1006.7 - 0.0 - - 10 - - - -
28/11:00pm 25.5 SW 9 13 1006.9 - 0.0 - - 10 - - - -
28/10:30pm 25.6 SW 10 14 1007.2 - 0.0 - Partly cloudy 10 - - - -
28/10:00pm 25.8 SW 10 15 1007.5 - 0.0 - Partly cloudy 10 - - - -
28/09:30pm 25.8 SSW 12 15 1007.4 - 0.0 - Partly cloudy 10 - - - -
28/09:00pm 25.9 SSW 13 17 1007.4 - 0.0 - - 10 - - - -
28/08:30pm 26.0 SSW 12 16 1007.1 - 0.0 - Partly cloudy 10 - - - -
28/08:00pm 26.0 SSW 13 17 1007.1 - 0.0 - Cloudy 10 - - - -
28/07:30pm 25.9 SSW 15 20 1006.5 - 0.0 - Partly cloudy 10 - - - -
28/07:00pm 26.0 SSW 17 23 1006.0 - 0.0 - - 10 - - - -
28/06:30pm 26.7 SW 17 22 1005.6 - 0.0 - Partly cloudy 10 - - - -
28/06:00pm 27.6 SSW 18 23 1005.4 - 0.0 - Partly cloudy 10 - - - -
28/05:30pm 28.1 SSW 19 25 1004.7 - 0.0 - - 10 - - - -
28/05:00pm 28.3 SW 19 25 1004.8 - 0.0 - - 10 - - - -
28/04:30pm 28.6 SW 18 24 1004.8 - 0.0 - - 10 - - - -
28/04:00pm 28.8 SW 17 24 1005.0 - 0.0 - - 10 - - - -
28/03:30pm 29.7 SW 17 23 1005.3 - 0.0 - - 10 - - - -
28/03:00pm 29.2 SW 17 23 1005.4 - 0.0 Fine Mostly clear 30 - - - -
28/02:30pm 29.1 SW 16 22 1005.7 - 0.0 - - 10 - - - -
28/02:00pm 29.1 SSW 17 21 1006.0 - 0.0 - - 10 - - - -
28/01:30pm 29.9 SSW 16 22 1006.6 - 0.0 - - 10 - - - -
28/01:00pm 28.7 SSW 18 21 1007.1 - 0.0 - - 10 - - - -

Other Formats:

Comma delimited format used in spreadsheet applications
http://www.bom.gov.au/fwo/IDW60701/IDW60701.94300.axf

JavaScript Object Notation format (JSON) in row-major order
http://www.bom.gov.au/fwo/IDW60701/IDW60701.94300.json